sensor_id;sensor_type;location;lat;lon;timestamp;P1;durP1;ratioP1;P2;durP2;ratioP2
21886;SDS011;11108;49.988;8.182;2023-02-15T00:01:31;7.93;;;7.13;;
21886;SDS011;11108;49.988;8.182;2023-02-15T00:03:56;8.33;;;6.83;;
21886;SDS011;11108;49.988;8.182;2023-02-15T00:06:21;10.83;;;7.03;;
21886;SDS011;11108;49.988;8.182;2023-02-15T00:08:47;7.17;;;6.20;;
21886;SDS011;11108;49.988;8.182;2023-02-15T00:11:13;7.17;;;6.47;;
21886;SDS011;11108;49.988;8.182;2023-02-15T00:13:39;8.30;;;7.03;;
21886;SDS011;11108;49.988;8.182;2023-02-15T00:16:11;7.27;;;6.57;;
21886;SDS011;11108;49.988;8.182;2023-02-15T00:18:37;7.60;;;6.50;;
21886;SDS011;11108;49.988;8.182;2023-02-15T00:21:03;7.80;;;6.50;;
21886;SDS011;11108;49.988;8.182;2023-02-15T00:23:28;7.27;;;5.97;;
21886;SDS011;11108;49.988;8.182;2023-02-15T00:26:07;7.00;;;6.30;;
21886;SDS011;11108;49.988;8.182;2023-02-15T00:28:32;6.83;;;6.23;;
21886;SDS011;11108;49.988;8.182;2023-02-15T00:31:08;7.60;;;6.90;;
21886;SDS011;11108;49.988;8.182;2023-02-15T00:33:33;7.37;;;6.60;;
21886;SDS011;11108;49.988;8.182;2023-02-15T00:35:59;7.07;;;6.37;;
21886;SDS011;11108;49.988;8.182;2023-02-15T00:38:25;7.10;;;6.40;;
21886;SDS011;11108;49.988;8.182;2023-02-15T00:40:54;6.50;;;5.90;;
21886;SDS011;11108;49.988;8.182;2023-02-15T00:43:19;7.30;;;6.60;;
21886;SDS011;11108;49.988;8.182;2023-02-15T00:45:45;7.00;;;6.40;;
21886;SDS011;11108;49.988;8.182;2023-02-15T00:48:10;6.87;;;6.17;;
21886;SDS011;11108;49.988;8.182;2023-02-15T00:50:35;6.60;;;6.00;;
21886;SDS011;11108;49.988;8.182;2023-02-15T00:53:00;6.83;;;6.17;;
21886;SDS011;11108;49.988;8.182;2023-02-15T00:55:25;6.77;;;6.10;;
21886;SDS011;11108;49.988;8.182;2023-02-15T00:57:51;6.17;;;5.67;;
21886;SDS011;11108;49.988;8.182;2023-02-15T01:00:16;6.77;;;6.17;;
21886;SDS011;11108;49.988;8.182;2023-02-15T01:02:41;8.03;;;6.50;;
21886;SDS011;11108;49.988;8.182;2023-02-15T01:05:06;6.63;;;5.93;;
21886;SDS011;11108;49.988;8.182;2023-02-15T01:07:32;6.20;;;5.70;;
21886;SDS011;11108;49.988;8.182;2023-02-15T01:09:57;7.23;;;6.53;;
21886;SDS011;11108;49.988;8.182;2023-02-15T01:12:22;6.67;;;5.67;;
21886;SDS011;11108;49.988;8.182;2023-02-15T01:14:47;6.50;;;6.00;;
21886;SDS011;11108;49.988;8.182;2023-02-15T01:17:12;6.00;;;5.50;;
21886;SDS011;11108;49.988;8.182;2023-02-15T01:19:38;6.30;;;5.80;;
21886;SDS011;11108;49.988;8.182;2023-02-15T01:22:03;7.00;;;6.30;;
21886;SDS011;11108;49.988;8.182;2023-02-15T01:24:28;6.53;;;6.03;;
21886;SDS011;11108;49.988;8.182;2023-02-15T01:26:53;5.90;;;5.50;;
21886;SDS011;11108;49.988;8.182;2023-02-15T01:29:18;6.27;;;5.77;;
21886;SDS011;11108;49.988;8.182;2023-02-15T01:31:44;6.37;;;5.77;;
21886;SDS011;11108;49.988;8.182;2023-02-15T01:34:09;6.47;;;5.87;;
21886;SDS011;11108;49.988;8.182;2023-02-15T01:36:34;6.23;;;5.67;;
21886;SDS011;11108;49.988;8.182;2023-02-15T01:39:00;6.00;;;5.57;;
21886;SDS011;11108;49.988;8.182;2023-02-15T01:41:25;5.97;;;5.47;;
21886;SDS011;11108;49.988;8.182;2023-02-15T01:43:58;5.53;;;5.13;;
21886;SDS011;11108;49.988;8.182;2023-02-15T01:46:43;6.00;;;5.50;;
21886;SDS011;11108;49.988;8.182;2023-02-15T01:49:12;6.27;;;5.77;;
21886;SDS011;11108;49.988;8.182;2023-02-15T01:51:39;6.20;;;5.60;;
21886;SDS011;11108;49.988;8.182;2023-02-15T01:54:09;5.70;;;5.30;;
21886;SDS011;11108;49.988;8.182;2023-02-15T01:56:36;6.27;;;5.77;;
21886;SDS011;11108;49.988;8.182;2023-02-15T01:59:03;5.67;;;5.20;;
21886;SDS011;11108;49.988;8.182;2023-02-15T02:01:30;6.03;;;5.53;;
21886;SDS011;11108;49.988;8.182;2023-02-15T02:03:57;5.97;;;5.43;;
21886;SDS011;11108;49.988;8.182;2023-02-15T02:06:24;6.33;;;5.83;;
21886;SDS011;11108;49.988;8.182;2023-02-15T02:08:50;5.97;;;5.47;;
21886;SDS011;11108;49.988;8.182;2023-02-15T02:11:16;5.37;;;4.97;;
21886;SDS011;11108;49.988;8.182;2023-02-15T02:13:42;5.70;;;5.30;;
21886;SDS011;11108;49.988;8.182;2023-02-15T02:16:13;5.87;;;5.40;;
21886;SDS011;11108;49.988;8.182;2023-02-15T02:34:55;5.50;;;5.10;;
21886;SDS011;11108;49.988;8.182;2023-02-15T02:37:28;5.77;;;5.27;;
21886;SDS011;11108;49.988;8.182;2023-02-15T02:40:18;5.83;;;5.43;;
21886;SDS011;11108;49.988;8.182;2023-02-15T02:42:42;5.10;;;4.70;;
21886;SDS011;11108;49.988;8.182;2023-02-15T02:50:27;5.40;;;5.00;;
21886;SDS011;11108;49.988;8.182;2023-02-15T02:52:54;5.20;;;4.83;;
21886;SDS011;11108;49.988;8.182;2023-02-15T02:57:47;5.27;;;4.87;;
21886;SDS011;11108;49.988;8.182;2023-02-15T03:00:17;5.30;;;4.90;;
21886;SDS011;11108;49.988;8.182;2023-02-15T03:02:43;5.40;;;4.97;;
21886;SDS011;11108;49.988;8.182;2023-02-15T03:05:11;5.17;;;4.77;;
21886;SDS011;11108;49.988;8.182;2023-02-15T03:07:38;5.77;;;5.37;;
21886;SDS011;11108;49.988;8.182;2023-02-15T03:10:04;5.40;;;5.00;;
21886;SDS011;11108;49.988;8.182;2023-02-15T03:12:32;5.03;;;4.63;;
21886;SDS011;11108;49.988;8.182;2023-02-15T03:15:05;5.23;;;4.83;;
21886;SDS011;11108;49.988;8.182;2023-02-15T03:17:32;5.43;;;4.93;;
21886;SDS011;11108;49.988;8.182;2023-02-15T03:19:59;5.47;;;5.07;;
21886;SDS011;11108;49.988;8.182;2023-02-15T03:22:47;5.30;;;4.80;;
21886;SDS011;11108;49.988;8.182;2023-02-15T03:25:13;5.43;;;5.03;;
21886;SDS011;11108;49.988;8.182;2023-02-15T03:27:42;5.50;;;5.10;;
21886;SDS011;11108;49.988;8.182;2023-02-15T03:30:08;6.13;;;5.57;;
21886;SDS011;11108;49.988;8.182;2023-02-15T03:32:34;5.20;;;4.80;;
21886;SDS011;11108;49.988;8.182;2023-02-15T03:35:01;5.00;;;4.70;;
21886;SDS011;11108;49.988;8.182;2023-02-15T03:40:07;6.07;;;5.13;;
21886;SDS011;11108;49.988;8.182;2023-02-15T03:42:55;5.07;;;4.70;;
21886;SDS011;11108;49.988;8.182;2023-02-15T03:45:24;5.20;;;4.83;;
21886;SDS011;11108;49.988;8.182;2023-02-15T03:47:51;4.57;;;4.27;;
21886;SDS011;11108;49.988;8.182;2023-02-15T03:50:21;5.43;;;4.93;;
21886;SDS011;11108;49.988;8.182;2023-02-15T03:53:08;4.83;;;4.43;;
21886;SDS011;11108;49.988;8.182;2023-02-15T03:55:34;5.03;;;4.63;;
21886;SDS011;11108;49.988;8.182;2023-02-15T03:58:00;5.43;;;5.03;;
21886;SDS011;11108;49.988;8.182;2023-02-15T04:00:46;4.70;;;4.40;;
21886;SDS011;11108;49.988;8.182;2023-02-15T04:04:15;5.00;;;4.70;;
21886;SDS011;11108;49.988;8.182;2023-02-15T04:06:21;5.17;;;4.70;;
21886;SDS011;11108;49.988;8.182;2023-02-15T04:08:46;4.53;;;4.13;;
21886;SDS011;11108;49.988;8.182;2023-02-15T04:11:30;4.50;;;4.20;;
21886;SDS011;11108;49.988;8.182;2023-02-15T04:13:55;5.20;;;4.80;;
21886;SDS011;11108;49.988;8.182;2023-02-15T04:16:24;4.70;;;4.40;;
21886;SDS011;11108;49.988;8.182;2023-02-15T04:18:50;4.70;;;4.40;;
21886;SDS011;11108;49.988;8.182;2023-02-15T04:21:34;4.97;;;4.57;;
21886;SDS011;11108;49.988;8.182;2023-02-15T04:24:18;4.37;;;4.07;;
21886;SDS011;11108;49.988;8.182;2023-02-15T04:27:02;4.27;;;3.97;;
21886;SDS011;11108;49.988;8.182;2023-02-15T04:29:28;4.33;;;4.03;;
21886;SDS011;11108;49.988;8.182;2023-02-15T04:31:54;4.80;;;4.50;;
21886;SDS011;11108;49.988;8.182;2023-02-15T04:34:20;4.53;;;4.23;;
21886;SDS011;11108;49.988;8.182;2023-02-15T04:36:45;4.83;;;4.53;;
21886;SDS011;11108;49.988;8.182;2023-02-15T04:39:13;4.90;;;4.53;;
21886;SDS011;11108;49.988;8.182;2023-02-15T04:41:39;4.83;;;4.43;;
21886;SDS011;11108;49.988;8.182;2023-02-15T04:44:04;4.83;;;4.50;;
21886;SDS011;11108;49.988;8.182;2023-02-15T04:46:30;5.10;;;4.37;;
21886;SDS011;11108;49.988;8.182;2023-02-15T04:48:55;5.13;;;4.73;;
21886;SDS011;11108;49.988;8.182;2023-02-15T04:51:20;4.47;;;4.17;;
21886;SDS011;11108;49.988;8.182;2023-02-15T04:53:46;4.43;;;4.13;;
21886;SDS011;11108;49.988;8.182;2023-02-15T04:56:11;3.97;;;3.70;;
21886;SDS011;11108;49.988;8.182;2023-02-15T04:58:36;4.93;;;4.53;;
21886;SDS011;11108;49.988;8.182;2023-02-15T05:01:02;4.53;;;4.23;;
21886;SDS011;11108;49.988;8.182;2023-02-15T05:03:27;3.70;;;3.50;;
21886;SDS011;11108;49.988;8.182;2023-02-15T05:05:52;4.53;;;4.23;;
21886;SDS011;11108;49.988;8.182;2023-02-15T05:08:17;4.30;;;4.00;;
21886;SDS011;11108;49.988;8.182;2023-02-15T05:10:42;4.77;;;4.40;;
21886;SDS011;11108;49.988;8.182;2023-02-15T05:13:08;4.27;;;3.97;;
21886;SDS011;11108;49.988;8.182;2023-02-15T05:15:33;3.67;;;3.47;;
21886;SDS011;11108;49.988;8.182;2023-02-15T05:17:58;3.37;;;3.17;;
21886;SDS011;11108;49.988;8.182;2023-02-15T05:20:23;3.67;;;3.37;;
21886;SDS011;11108;49.988;8.182;2023-02-15T05:22:50;3.40;;;3.20;;
21886;SDS011;11108;49.988;8.182;2023-02-15T05:25:17;3.40;;;3.20;;
21886;SDS011;11108;49.988;8.182;2023-02-15T05:28:01;3.30;;;3.10;;
21886;SDS011;11108;49.988;8.182;2023-02-15T05:30:46;3.33;;;3.13;;
21886;SDS011;11108;49.988;8.182;2023-02-15T05:33:11;3.97;;;3.70;;
21886;SDS011;11108;49.988;8.182;2023-02-15T05:35:36;3.40;;;3.20;;
21886;SDS011;11108;49.988;8.182;2023-02-15T05:38:02;3.27;;;3.10;;
21886;SDS011;11108;49.988;8.182;2023-02-15T05:40:27;3.27;;;3.07;;
21886;SDS011;11108;49.988;8.182;2023-02-15T05:42:52;3.67;;;3.47;;
21886;SDS011;11108;49.988;8.182;2023-02-15T05:45:17;2.90;;;2.70;;
21886;SDS011;11108;49.988;8.182;2023-02-15T05:47:42;3.63;;;3.33;;
21886;SDS011;11108;49.988;8.182;2023-02-15T05:50:08;3.80;;;3.50;;
21886;SDS011;11108;49.988;8.182;2023-02-15T05:52:34;2.70;;;2.60;;
21886;SDS011;11108;49.988;8.182;2023-02-15T05:54:59;3.07;;;2.87;;
21886;SDS011;11108;49.988;8.182;2023-02-15T05:57:25;3.20;;;3.00;;
21886;SDS011;11108;49.988;8.182;2023-02-15T05:59:50;3.33;;;3.03;;
21886;SDS011;11108;49.988;8.182;2023-02-15T06:02:15;3.80;;;3.47;;
21886;SDS011;11108;49.988;8.182;2023-02-15T06:04:40;3.57;;;3.23;;
21886;SDS011;11108;49.988;8.182;2023-02-15T06:07:06;3.20;;;3.00;;
21886;SDS011;11108;49.988;8.182;2023-02-15T06:09:31;3.50;;;3.20;;
21886;SDS011;11108;49.988;8.182;2023-02-15T06:11:56;3.17;;;2.97;;
21886;SDS011;11108;49.988;8.182;2023-02-15T06:14:21;3.90;;;3.03;;
21886;SDS011;11108;49.988;8.182;2023-02-15T06:16:46;3.47;;;3.20;;
21886;SDS011;11108;49.988;8.182;2023-02-15T06:19:11;3.10;;;2.87;;
21886;SDS011;11108;49.988;8.182;2023-02-15T06:21:37;3.13;;;2.93;;
21886;SDS011;11108;49.988;8.182;2023-02-15T06:24:02;3.10;;;2.90;;
21886;SDS011;11108;49.988;8.182;2023-02-15T06:26:27;3.47;;;2.60;;
21886;SDS011;11108;49.988;8.182;2023-02-15T06:28:52;2.83;;;2.63;;
21886;SDS011;11108;49.988;8.182;2023-02-15T06:31:18;3.00;;;2.70;;
21886;SDS011;11108;49.988;8.182;2023-02-15T06:33:43;2.80;;;2.60;;
21886;SDS011;11108;49.988;8.182;2023-02-15T06:36:08;2.90;;;2.70;;
21886;SDS011;11108;49.988;8.182;2023-02-15T06:38:33;3.10;;;2.90;;
21886;SDS011;11108;49.988;8.182;2023-02-15T06:40:59;2.90;;;2.70;;
21886;SDS011;11108;49.988;8.182;2023-02-15T06:43:24;3.43;;;3.13;;
21886;SDS011;11108;49.988;8.182;2023-02-15T06:45:49;3.43;;;3.23;;
21886;SDS011;11108;49.988;8.182;2023-02-15T06:48:14;2.97;;;2.70;;
21886;SDS011;11108;49.988;8.182;2023-02-15T06:50:39;2.83;;;2.67;;
21886;SDS011;11108;49.988;8.182;2023-02-15T06:53:05;3.33;;;3.13;;
21886;SDS011;11108;49.988;8.182;2023-02-15T06:55:30;3.23;;;2.93;;
21886;SDS011;11108;49.988;8.182;2023-02-15T06:57:55;2.90;;;2.70;;
21886;SDS011;11108;49.988;8.182;2023-02-15T07:00:20;3.47;;;3.07;;
21886;SDS011;11108;49.988;8.182;2023-02-15T07:02:47;3.17;;;2.87;;
21886;SDS011;11108;49.988;8.182;2023-02-15T07:05:13;2.97;;;2.60;;
21886;SDS011;11108;49.988;8.182;2023-02-15T07:07:38;3.00;;;2.80;;
21886;SDS011;11108;49.988;8.182;2023-02-15T07:10:03;2.50;;;2.40;;
21886;SDS011;11108;49.988;8.182;2023-02-15T07:12:29;4.63;;;2.80;;
21886;SDS011;11108;49.988;8.182;2023-02-15T07:15:07;3.13;;;2.93;;
21886;SDS011;11108;49.988;8.182;2023-02-15T07:17:32;2.77;;;2.60;;
21886;SDS011;11108;49.988;8.182;2023-02-15T07:19:58;3.27;;;2.77;;
21886;SDS011;11108;49.988;8.182;2023-02-15T07:22:23;2.67;;;2.47;;
21886;SDS011;11108;49.988;8.182;2023-02-15T07:24:48;2.70;;;2.50;;
21886;SDS011;11108;49.988;8.182;2023-02-15T07:27:14;3.10;;;2.80;;
21886;SDS011;11108;49.988;8.182;2023-02-15T07:29:39;3.03;;;2.83;;
21886;SDS011;11108;49.988;8.182;2023-02-15T07:32:04;3.23;;;2.60;;
21886;SDS011;11108;49.988;8.182;2023-02-15T07:34:29;5.83;;;2.90;;
21886;SDS011;11108;49.988;8.182;2023-02-15T07:36:55;5.90;;;3.53;;
21886;SDS011;11108;49.988;8.182;2023-02-15T07:39:20;15.53;;;4.50;;
21886;SDS011;11108;49.988;8.182;2023-02-15T07:41:45;13.13;;;4.70;;
21886;SDS011;11108;49.988;8.182;2023-02-15T07:44:11;9.17;;;3.77;;
21886;SDS011;11108;49.988;8.182;2023-02-15T07:46:37;11.57;;;4.17;;
21886;SDS011;11108;49.988;8.182;2023-02-15T07:49:02;9.30;;;3.73;;
21886;SDS011;11108;49.988;8.182;2023-02-15T07:51:28;10.73;;;4.23;;
21886;SDS011;11108;49.988;8.182;2023-02-15T07:53:53;8.00;;;3.83;;
21886;SDS011;11108;49.988;8.182;2023-02-15T07:56:19;6.13;;;3.70;;
21886;SDS011;11108;49.988;8.182;2023-02-15T07:58:44;7.63;;;3.47;;
21886;SDS011;11108;49.988;8.182;2023-02-15T08:01:16;5.83;;;3.27;;
21886;SDS011;11108;49.988;8.182;2023-02-15T08:03:41;9.67;;;3.70;;
21886;SDS011;11108;49.988;8.182;2023-02-15T08:06:07;4.57;;;3.30;;
21886;SDS011;11108;49.988;8.182;2023-02-15T08:08:35;5.70;;;3.00;;
21886;SDS011;11108;49.988;8.182;2023-02-15T08:13:53;7.60;;;3.57;;
21886;SDS011;11108;49.988;8.182;2023-02-15T08:16:26;7.80;;;3.13;;
21886;SDS011;11108;49.988;8.182;2023-02-15T08:18:52;4.93;;;3.60;;
21886;SDS011;11108;49.988;8.182;2023-02-15T08:21:18;8.67;;;3.60;;
21886;SDS011;11108;49.988;8.182;2023-02-15T08:23:44;4.27;;;3.43;;
21886;SDS011;11108;49.988;8.182;2023-02-15T08:26:09;7.10;;;3.50;;
21886;SDS011;11108;49.988;8.182;2023-02-15T08:28:34;4.60;;;3.00;;
21886;SDS011;11108;49.988;8.182;2023-02-15T08:31:09;4.53;;;3.57;;
21886;SDS011;11108;49.988;8.182;2023-02-15T08:33:35;6.97;;;3.33;;
21886;SDS011;11108;49.988;8.182;2023-02-15T08:36:08;5.57;;;3.20;;
21886;SDS011;11108;49.988;8.182;2023-02-15T08:38:34;6.07;;;3.20;;
21886;SDS011;11108;49.988;8.182;2023-02-15T08:41:09;4.03;;;2.70;;
21886;SDS011;11108;49.988;8.182;2023-02-15T08:43:34;5.27;;;3.20;;
21886;SDS011;11108;49.988;8.182;2023-02-15T08:45:59;5.50;;;3.10;;
21886;SDS011;11108;49.988;8.182;2023-02-15T08:48:24;4.20;;;3.37;;
21886;SDS011;11108;49.988;8.182;2023-02-15T08:50:50;4.83;;;3.10;;
21886;SDS011;11108;49.988;8.182;2023-02-15T08:53:15;3.60;;;3.30;;
21886;SDS011;11108;49.988;8.182;2023-02-15T08:55:40;4.37;;;3.13;;
21886;SDS011;11108;49.988;8.182;2023-02-15T08:58:05;4.30;;;3.20;;
21886;SDS011;11108;49.988;8.182;2023-02-15T09:00:30;5.10;;;2.70;;
21886;SDS011;11108;49.988;8.182;2023-02-15T09:02:56;5.33;;;3.43;;
21886;SDS011;11108;49.988;8.182;2023-02-15T09:05:21;3.60;;;3.30;;
21886;SDS011;11108;49.988;8.182;2023-02-15T09:07:46;4.10;;;2.77;;
21886;SDS011;11108;49.988;8.182;2023-02-15T09:10:11;6.90;;;3.20;;
21886;SDS011;11108;49.988;8.182;2023-02-15T09:12:37;2.90;;;2.67;;
21886;SDS011;11108;49.988;8.182;2023-02-15T09:15:02;3.47;;;2.93;;
21886;SDS011;11108;49.988;8.182;2023-02-15T09:17:27;3.00;;;2.60;;
21886;SDS011;11108;49.988;8.182;2023-02-15T09:19:52;3.37;;;2.80;;
21886;SDS011;11108;49.988;8.182;2023-02-15T09:22:18;2.97;;;2.77;;
21886;SDS011;11108;49.988;8.182;2023-02-15T09:24:43;4.17;;;3.10;;
21886;SDS011;11108;49.988;8.182;2023-02-15T09:27:08;3.50;;;2.70;;
21886;SDS011;11108;49.988;8.182;2023-02-15T09:29:33;2.80;;;2.60;;
21886;SDS011;11108;49.988;8.182;2023-02-15T09:31:58;2.67;;;2.47;;
21886;SDS011;11108;49.988;8.182;2023-02-15T09:34:23;2.67;;;2.47;;
21886;SDS011;11108;49.988;8.182;2023-02-15T09:36:50;3.57;;;2.90;;
21886;SDS011;11108;49.988;8.182;2023-02-15T09:39:25;3.67;;;2.90;;
21886;SDS011;11108;49.988;8.182;2023-02-15T09:58:17;2.70;;;2.50;;
21886;SDS011;11108;49.988;8.182;2023-02-15T10:00:50;7.70;;;3.03;;
21886;SDS011;11108;49.988;8.182;2023-02-15T10:14:01;2.90;;;2.60;;
21886;SDS011;11108;49.988;8.182;2023-02-15T10:19:09;3.53;;;2.63;;
21886;SDS011;11108;49.988;8.182;2023-02-15T10:21:50;2.60;;;2.40;;
21886;SDS011;11108;49.988;8.182;2023-02-15T10:27:07;5.33;;;2.87;;
21886;SDS011;11108;49.988;8.182;2023-02-15T10:29:36;3.60;;;2.47;;
21886;SDS011;11108;49.988;8.182;2023-02-15T10:35:04;2.90;;;2.70;;
21886;SDS011;11108;49.988;8.182;2023-02-15T10:50:54;3.07;;;2.67;;
21886;SDS011;11108;49.988;8.182;2023-02-15T11:08:29;3.27;;;2.87;;
21886;SDS011;11108;49.988;8.182;2023-02-15T11:10:59;5.67;;;2.80;;
21886;SDS011;11108;49.988;8.182;2023-02-15T11:13:27;3.23;;;3.00;;
21886;SDS011;11108;49.988;8.182;2023-02-15T11:15:55;2.50;;;2.37;;
21886;SDS011;11108;49.988;8.182;2023-02-15T11:18:24;4.97;;;2.80;;
21886;SDS011;11108;49.988;8.182;2023-02-15T11:23:22;3.20;;;2.90;;
21886;SDS011;11108;49.988;8.182;2023-02-15T11:25:53;3.40;;;2.93;;
21886;SDS011;11108;49.988;8.182;2023-02-15T11:28:22;4.53;;;3.40;;
21886;SDS011;11108;49.988;8.182;2023-02-15T11:30:53;5.43;;;3.00;;
21886;SDS011;11108;49.988;8.182;2023-02-15T11:33:21;2.50;;;2.40;;
21886;SDS011;11108;49.988;8.182;2023-02-15T11:38:22;6.00;;;3.03;;
21886;SDS011;11108;49.988;8.182;2023-02-15T11:41:11;3.93;;;2.90;;
21886;SDS011;11108;49.988;8.182;2023-02-15T11:43:39;6.40;;;2.90;;
21886;SDS011;11108;49.988;8.182;2023-02-15T11:46:05;7.30;;;3.17;;
21886;SDS011;11108;49.988;8.182;2023-02-15T11:48:31;3.40;;;3.00;;
21886;SDS011;11108;49.988;8.182;2023-02-15T11:50:56;4.70;;;3.00;;
21886;SDS011;11108;49.988;8.182;2023-02-15T11:53:22;2.80;;;2.60;;
21886;SDS011;11108;49.988;8.182;2023-02-15T11:55:52;4.20;;;2.80;;
21886;SDS011;11108;49.988;8.182;2023-02-15T12:00:46;6.17;;;2.60;;
21886;SDS011;11108;49.988;8.182;2023-02-15T12:03:14;3.13;;;2.50;;
21886;SDS011;11108;49.988;8.182;2023-02-15T12:05:42;4.00;;;2.90;;
21886;SDS011;11108;49.988;8.182;2023-02-15T12:08:17;2.87;;;2.67;;
21886;SDS011;11108;49.988;8.182;2023-02-15T12:10:56;5.13;;;3.10;;
21886;SDS011;11108;49.988;8.182;2023-02-15T12:13:22;3.03;;;2.80;;
21886;SDS011;11108;49.988;8.182;2023-02-15T12:15:51;4.03;;;3.23;;
21886;SDS011;11108;49.988;8.182;2023-02-15T12:18:18;2.70;;;2.50;;
21886;SDS011;11108;49.988;8.182;2023-02-15T12:20:44;2.50;;;2.30;;
21886;SDS011;11108;49.988;8.182;2023-02-15T12:23:12;3.10;;;2.83;;
21886;SDS011;11108;49.988;8.182;2023-02-15T12:25:40;2.77;;;2.30;;
21886;SDS011;11108;49.988;8.182;2023-02-15T12:28:30;4.27;;;2.77;;
21886;SDS011;11108;49.988;8.182;2023-02-15T12:30:52;3.43;;;2.60;;
21886;SDS011;11108;49.988;8.182;2023-02-15T12:33:33;3.33;;;2.93;;
21886;SDS011;11108;49.988;8.182;2023-02-15T12:36:21;3.10;;;2.80;;
21886;SDS011;11108;49.988;8.182;2023-02-15T12:41:29;4.30;;;3.07;;
21886;SDS011;11108;49.988;8.182;2023-02-15T12:44:05;3.37;;;3.07;;
21886;SDS011;11108;49.988;8.182;2023-02-15T12:46:31;4.20;;;2.70;;
21886;SDS011;11108;49.988;8.182;2023-02-15T12:51:51;3.27;;;2.97;;
21886;SDS011;11108;49.988;8.182;2023-02-15T12:54:31;2.60;;;2.40;;
21886;SDS011;11108;49.988;8.182;2023-02-15T12:56:57;3.83;;;3.10;;
21886;SDS011;11108;49.988;8.182;2023-02-15T12:59:23;3.20;;;3.00;;
21886;SDS011;11108;49.988;8.182;2023-02-15T13:01:48;3.03;;;2.73;;
21886;SDS011;11108;49.988;8.182;2023-02-15T13:04:32;3.33;;;2.90;;
21886;SDS011;11108;49.988;8.182;2023-02-15T13:06:57;4.30;;;3.03;;
21886;SDS011;11108;49.988;8.182;2023-02-15T13:11:56;5.47;;;2.93;;
21886;SDS011;11108;49.988;8.182;2023-02-15T13:14:25;3.27;;;2.70;;
21886;SDS011;11108;49.988;8.182;2023-02-15T13:16:53;3.83;;;2.63;;
21886;SDS011;11108;49.988;8.182;2023-02-15T13:19:37;3.03;;;2.83;;
21886;SDS011;11108;49.988;8.182;2023-02-15T13:22:13;3.63;;;2.80;;
21886;SDS011;11108;49.988;8.182;2023-02-15T13:24:39;2.57;;;2.47;;
21886;SDS011;11108;49.988;8.182;2023-02-15T13:27:07;3.13;;;2.93;;
21886;SDS011;11108;49.988;8.182;2023-02-15T13:29:36;3.13;;;2.83;;
21886;SDS011;11108;49.988;8.182;2023-02-15T13:32:23;2.80;;;2.60;;
21886;SDS011;11108;49.988;8.182;2023-02-15T13:34:49;3.07;;;2.70;;
21886;SDS011;11108;49.988;8.182;2023-02-15T13:39:44;4.23;;;2.80;;
21886;SDS011;11108;49.988;8.182;2023-02-15T13:42:27;3.50;;;2.67;;
21886;SDS011;11108;49.988;8.182;2023-02-15T13:50:19;2.60;;;2.40;;
21886;SDS011;11108;49.988;8.182;2023-02-15T14:03:26;3.17;;;2.87;;
21886;SDS011;11108;49.988;8.182;2023-02-15T14:08:38;4.23;;;2.47;;
21886;SDS011;11108;49.988;8.182;2023-02-15T14:11:27;2.93;;;2.73;;
21886;SDS011;11108;49.988;8.182;2023-02-15T14:24:25;4.57;;;2.73;;
21886;SDS011;11108;49.988;8.182;2023-02-15T14:29:22;3.20;;;3.00;;
21886;SDS011;11108;49.988;8.182;2023-02-15T14:31:52;2.87;;;2.77;;
21886;SDS011;11108;49.988;8.182;2023-02-15T14:34:21;7.47;;;2.80;;
21886;SDS011;11108;49.988;8.182;2023-02-15T14:36:47;2.77;;;2.53;;
21886;SDS011;11108;49.988;8.182;2023-02-15T14:45:21;3.00;;;2.70;;
21886;SDS011;11108;49.988;8.182;2023-02-15T14:50:41;3.00;;;2.70;;
21886;SDS011;11108;49.988;8.182;2023-02-15T14:53:14;3.13;;;2.93;;
21886;SDS011;11108;49.988;8.182;2023-02-15T14:55:40;3.27;;;2.73;;
21886;SDS011;11108;49.988;8.182;2023-02-15T14:58:09;4.83;;;3.17;;
21886;SDS011;11108;49.988;8.182;2023-02-15T15:00:36;3.40;;;3.10;;
21886;SDS011;11108;49.988;8.182;2023-02-15T15:03:05;3.83;;;3.50;;
21886;SDS011;11108;49.988;8.182;2023-02-15T15:05:35;3.03;;;2.73;;
21886;SDS011;11108;49.988;8.182;2023-02-15T15:08:17;2.90;;;2.70;;
21886;SDS011;11108;49.988;8.182;2023-02-15T15:10:46;2.90;;;2.70;;
21886;SDS011;11108;49.988;8.182;2023-02-15T15:15:55;2.77;;;2.57;;
21886;SDS011;11108;49.988;8.182;2023-02-15T15:21:06;3.97;;;2.77;;
21886;SDS011;11108;49.988;8.182;2023-02-15T15:23:39;2.60;;;2.50;;
21886;SDS011;11108;49.988;8.182;2023-02-15T15:26:21;2.83;;;2.63;;
21886;SDS011;11108;49.988;8.182;2023-02-15T15:34:17;3.20;;;3.00;;
21886;SDS011;11108;49.988;8.182;2023-02-15T15:39:21;3.00;;;2.80;;
21886;SDS011;11108;49.988;8.182;2023-02-15T15:41:53;3.17;;;2.87;;
21886;SDS011;11108;49.988;8.182;2023-02-15T15:49:54;3.40;;;3.10;;
21886;SDS011;11108;49.988;8.182;2023-02-15T15:52:20;3.57;;;3.27;;
21886;SDS011;11108;49.988;8.182;2023-02-15T15:54:46;3.47;;;3.17;;
21886;SDS011;11108;49.988;8.182;2023-02-15T15:57:15;5.23;;;3.10;;
21886;SDS011;11108;49.988;8.182;2023-02-15T15:59:43;4.80;;;3.13;;
21886;SDS011;11108;49.988;8.182;2023-02-15T16:02:16;3.13;;;2.93;;
21886;SDS011;11108;49.988;8.182;2023-02-15T16:04:41;3.73;;;3.43;;
21886;SDS011;11108;49.988;8.182;2023-02-15T16:10:04;3.67;;;3.37;;
21886;SDS011;11108;49.988;8.182;2023-02-15T16:12:28;5.07;;;3.07;;
21886;SDS011;11108;49.988;8.182;2023-02-15T16:14:54;4.03;;;3.30;;
21886;SDS011;11108;49.988;8.182;2023-02-15T16:17:20;7.63;;;3.60;;
21886;SDS011;11108;49.988;8.182;2023-02-15T16:19:46;3.10;;;2.90;;
21886;SDS011;11108;49.988;8.182;2023-02-15T16:22:13;3.90;;;3.17;;
21886;SDS011;11108;49.988;8.182;2023-02-15T16:29:39;3.77;;;3.43;;
21886;SDS011;11108;49.988;8.182;2023-02-15T16:32:14;3.80;;;3.50;;
21886;SDS011;11108;49.988;8.182;2023-02-15T16:34:50;4.57;;;3.50;;
21886;SDS011;11108;49.988;8.182;2023-02-15T16:37:16;3.90;;;3.17;;
21886;SDS011;11108;49.988;8.182;2023-02-15T16:39:41;4.07;;;3.67;;
21886;SDS011;11108;49.988;8.182;2023-02-15T16:42:07;3.70;;;3.40;;
21886;SDS011;11108;49.988;8.182;2023-02-15T16:44:33;3.70;;;3.40;;
21886;SDS011;11108;49.988;8.182;2023-02-15T16:46:58;4.00;;;3.70;;
21886;SDS011;11108;49.988;8.182;2023-02-15T16:49:24;4.87;;;3.97;;
21886;SDS011;11108;49.988;8.182;2023-02-15T16:52:00;4.07;;;3.77;;
21886;SDS011;11108;49.988;8.182;2023-02-15T16:54:27;6.70;;;4.00;;
21886;SDS011;11108;49.988;8.182;2023-02-15T16:56:53;6.07;;;4.57;;
21886;SDS011;11108;49.988;8.182;2023-02-15T17:02:17;4.33;;;4.03;;
21886;SDS011;11108;49.988;8.182;2023-02-15T17:04:43;5.20;;;4.27;;
21886;SDS011;11108;49.988;8.182;2023-02-15T17:07:16;5.77;;;4.50;;
21886;SDS011;11108;49.988;8.182;2023-02-15T17:09:54;4.47;;;4.17;;
21886;SDS011;11108;49.988;8.182;2023-02-15T17:12:43;4.77;;;4.33;;
21886;SDS011;11108;49.988;8.182;2023-02-15T17:17:54;5.47;;;4.83;;
21886;SDS011;11108;49.988;8.182;2023-02-15T17:20:19;5.63;;;5.13;;
21886;SDS011;11108;49.988;8.182;2023-02-15T17:22:46;6.10;;;5.50;;
21886;SDS011;11108;49.988;8.182;2023-02-15T17:25:18;6.67;;;6.13;;
21886;SDS011;11108;49.988;8.182;2023-02-15T17:27:43;6.60;;;6.10;;
21886;SDS011;11108;49.988;8.182;2023-02-15T17:30:12;7.23;;;6.53;;
21886;SDS011;11108;49.988;8.182;2023-02-15T17:32:39;6.63;;;5.77;;
21886;SDS011;11108;49.988;8.182;2023-02-15T17:35:21;7.53;;;6.90;;
21886;SDS011;11108;49.988;8.182;2023-02-15T17:37:47;6.90;;;6.40;;
21886;SDS011;11108;49.988;8.182;2023-02-15T17:40:18;7.20;;;6.50;;
21886;SDS011;11108;49.988;8.182;2023-02-15T17:42:44;6.53;;;5.93;;
21886;SDS011;11108;49.988;8.182;2023-02-15T17:45:09;6.93;;;6.07;;
21886;SDS011;11108;49.988;8.182;2023-02-15T17:47:34;10.30;;;6.43;;
21886;SDS011;11108;49.988;8.182;2023-02-15T17:50:00;6.80;;;6.20;;
21886;SDS011;11108;49.988;8.182;2023-02-15T17:52:27;7.30;;;6.53;;
21886;SDS011;11108;49.988;8.182;2023-02-15T17:54:53;7.37;;;6.73;;
21886;SDS011;11108;49.988;8.182;2023-02-15T17:57:56;7.27;;;6.00;;
21886;SDS011;11108;49.988;8.182;2023-02-15T18:00:22;7.70;;;6.97;;